Time;durP1;ratioP1;P1;durP2;ratioP2;P2;SDS_P1;SDS_P2;PMS_P1;PMS_P2;Temp;Humidity;BMP_temperature;BMP_pressure;BME280_temperature;BME280_humidity;BME280_pressure;Samples;Min_cycle;Max_cycle;Signal;HPM_P1;HPM_P2
2021/08/29 12:38:30;;;;;;;4.95;3.67;;;;;;;19.10;77.42;100417.95;5362820;54;21711;-86
2021/08/29 12:43:37;;;;;;;3.87;3.52;;;;;;;19.04;76.38;100428.56;5298318;55;21247;-87
2021/08/29 12:48:50;;;;;;;4.67;3.70;;;;;;;19.10;76.44;100416.61;5327165;55;21535;-85
2021/08/29 12:53:59;;;;;;;5.35;3.22;;;;;;;19.15;76.02;100414.25;5088833;57;21186;-83
2021/08/29 12:59:05;;;;;;;4.15;3.77;;;;;;;19.12;75.16;100417.28;5101347;57;21139;-83
2021/08/29 13:04:13;;;;;;;4.55;3.70;;;;;;;19.06;75.36;100404.59;5169412;56;21135;-84
2021/08/29 13:09:18;;;;;;;5.22;3.70;;;;;;;19.16;75.91;100403.02;5144428;56;21261;-84
2021/08/29 13:14:37;;;;;;;3.90;3.60;;;;;;;19.27;74.70;100407.46;5133422;57;21171;-83
2021/08/29 13:19:44;;;;;;;3.55;3.22;;;;;;;19.31;74.88;100412.80;5176275;56;21558;-82
2021/08/29 13:24:51;;;;;;;4.00;3.33;;;;;;;19.44;75.62;100409.52;5171864;56;21107;-83
2021/08/29 13:29:58;;;;;;;3.22;2.90;;;;;;;19.58;74.71;100409.28;5323417;55;21241;-85
2021/08/29 13:35:16;;;;;;;5.58;3.70;;;;;;;19.78;75.58;100405.60;5315505;55;21113;-85
2021/08/29 13:40:25;;;;;;;4.08;3.20;;;;;;;19.95;74.51;100386.48;5244918;55;21654;-80
2021/08/29 13:45:40;;;;;;;3.90;3.27;;;;;;;19.91;72.33;100382.48;5294650;55;21540;-85
2021/08/29 13:50:46;;;;;;;5.00;3.65;;;;;;;19.84;72.69;100378.05;5045115;58;21597;-83
2021/08/29 13:55:52;;;;;;;2.50;2.40;;;;;;;19.87;72.18;100383.03;5070036;58;21196;-82
2021/08/29 14:00:58;;;;;;;2.42;2.25;;;;;;;19.85;72.23;100380.55;5107433;57;21196;-82
2021/08/29 14:06:04;;;;;;;2.67;2.45;;;;;;;19.82;71.74;100376.05;5125445;57;21193;-82
2021/08/29 14:25:07;;;;;;;3.22;2.52;;;;;;;19.76;71.19;100371.40;5231791;56;21073;-80
2021/08/29 14:30:13;;;;;;;2.90;2.70;;;;;;;19.72;71.88;100388.36;5216242;56;21189;-81
2021/08/29 14:35:21;;;;;;;2.50;2.30;;;;;;;19.73;72.23;100388.69;5187277;56;21691;-80
2021/08/29 14:40:27;;;;;;;2.75;2.55;;;;;;;19.82;72.13;100385.44;5154301;56;21154;-79
2021/08/29 14:45:36;;;;;;;2.10;1.95;;;;;;;19.87;72.23;100387.89;5105945;57;21163;-79
2021/08/29 14:50:40;;;;;;;2.42;2.22;;;;;;;19.99;72.28;100384.27;5154900;57;21147;-82
2021/08/29 14:55:48;;;;;;;6.03;2.62;;;;;;;19.90;71.20;100383.50;5116338;57;21151;-81
2021/08/29 15:00:53;;;;;;;2.65;2.45;;;;;;;19.85;71.50;100373.02;5155642;57;21231;-80
2021/08/29 15:05:59;;;;;;;3.35;3.05;;;;;;;19.80;71.71;100372.71;5155936;57;21084;-78
2021/08/29 15:11:05;;;;;;;3.95;3.35;;;;;;;19.80;71.89;100368.18;5155631;57;22118;-81
2021/08/29 15:16:11;;;;;;;3.15;2.85;;;;;;;19.89;72.10;100374.29;5121890;57;21198;-80
2021/08/29 15:21:16;;;;;;;3.05;2.83;;;;;;;19.98;71.97;100374.55;5153989;56;21607;-81
2021/08/29 15:26:24;;;;;;;4.67;3.95;;;;;;;19.93;71.24;100369.72;5166883;56;21146;-84
2021/08/29 15:31:30;;;;;;;5.95;4.03;;;;;;;19.87;71.43;100372.30;5127096;57;21148;-82
2021/08/29 15:36:36;;;;;;;4.95;3.72;;;;;;;19.75;71.44;100377.78;5205753;56;21138;-84
2021/08/29 15:41:41;;;;;;;4.20;3.30;;;;;;;19.69;71.75;100380.70;5105925;57;21169;-84
2021/08/29 15:46:49;;;;;;;6.72;3.90;;;;;;;19.62;72.17;100383.27;5121837;57;21134;-82
2021/08/29 15:51:55;;;;;;;5.40;3.10;;;;;;;19.59;72.14;100386.80;5145642;56;21227;-86
2021/08/29 15:57:01;;;;;;;3.25;2.95;;;;;;;19.59;72.44;100382.78;5124639;57;22164;-83
2021/08/29 16:02:07;;;;;;;3.60;3.25;;;;;;;19.41;72.59;100377.69;5099621;57;21180;-84
2021/08/29 16:07:15;;;;;;;6.37;3.20;;;;;;;19.23;73.79;100373.99;5060564;58;21153;-84
2021/08/29 16:12:21;;;;;;;3.22;2.80;;;;;;;19.05;74.82;100369.42;5069915;58;21151;-84
2021/08/29 16:17:26;;;;;;;3.62;3.27;;;;;;;18.85;75.65;100372.20;5088053;57;21180;-84
2021/08/29 16:22:33;;;;;;;3.72;3.30;;;;;;;18.70;76.21;100364.59;5111637;57;21071;-84
2021/08/29 16:27:42;;;;;;;3.47;2.72;;;;;;;18.65;76.61;100374.98;5110040;57;21158;-84
2021/08/29 16:32:47;;;;;;;3.92;3.00;;;;;;;18.59;76.62;100368.50;5108923;57;21173;-84
2021/08/29 16:37:53;;;;;;;2.77;2.58;;;;;;;18.53;76.74;100370.48;5073352;57;21155;-83
2021/08/29 16:42:58;;;;;;;1.75;1.65;;;;;;;18.47;76.61;100385.93;5088647;57;21174;-83
2021/08/29 16:48:05;;;;;;;12.98;11.05;;;;;;;18.36;76.28;100396.99;5184932;56;21153;-83
2021/08/29 16:53:11;;;;;;;32.50;22.65;;;;;;;18.31;76.43;100394.85;5124129;57;21180;-91
2021/08/29 16:58:16;;;;;;;11.53;8.80;;;;;;;18.34;76.37;100403.86;5153848;57;21160;-82
2021/08/29 17:03:22;;;;;;;10.05;9.05;;;;;;;18.30;76.23;100413.77;5233506;56;21151;-81
2021/08/29 17:08:28;;;;;;;14.20;10.98;;;;;;;18.24;76.06;100416.61;5233344;56;21138;-83
2021/08/29 17:13:34;;;;;;;4.28;3.62;;;;;;;18.25;76.55;100415.61;5152920;57;21092;-81
2021/08/29 17:18:41;;;;;;;6.78;3.47;;;;;;;18.29;77.30;100424.98;5231193;56;21087;-82
2021/08/29 17:23:49;;;;;;;4.67;3.40;;;;;;;18.31;77.50;100425.64;5164391;57;21161;-82
2021/08/29 17:28:55;;;;;;;2.62;2.33;;;;;;;18.34;77.37;100432.47;5164164;57;21600;-82
2021/08/29 17:34:01;;;;;;;3.47;3.17;;;;;;;18.28;76.50;100432.17;5164210;57;21209;-81
2021/08/29 17:39:07;;;;;;;3.33;3.02;;;;;;;18.15;76.61;100433.20;5164378;57;21153;-81
2021/08/29 17:44:14;;;;;;;6.37;3.37;;;;;;;17.96;76.98;100432.72;5156575;57;21194;-82
2021/08/29 17:49:19;;;;;;;13.75;5.80;;;;;;;17.89;77.09;100441.91;5108935;57;21274;-82
2021/08/29 17:54:25;;;;;;;18.12;6.95;;;;;;;17.86;77.52;100435.58;5103491;57;21229;-83
2021/08/29 17:59:31;;;;;;;13.60;6.17;;;;;;;17.77;77.53;100443.25;5099548;57;21232;-81
2021/08/29 18:04:37;;;;;;;7.63;3.60;;;;;;;17.70;78.25;100453.80;5105236;57;21224;-81
2021/08/29 18:09:43;;;;;;;22.37;5.45;;;;;;;17.69;78.49;100452.62;5098243;57;21148;-83
2021/08/29 18:14:49;;;;;;;2.43;1.20;;;;;;;17.70;78.47;100454.30;5101638;57;21184;-83
2021/08/29 18:19:55;;;;;;;5.27;2.27;;;;;;;17.70;78.53;100456.98;5124071;57;22634;-82
2021/08/29 18:25:01;;;;;;;1.43;1.17;;;;;;;17.71;78.38;100466.68;5216727;56;21267;-82
2021/08/29 18:30:12;;;;;;;2.97;1.40;;;;;;;17.63;78.27;100460.77;5212393;57;21506;-83
2021/08/29 18:35:18;;;;;;;4.67;2.63;;;;;;;17.51;78.27;100462.94;5196437;57;21248;-81
2021/08/29 18:40:24;;;;;;;8.20;3.83;;;;;;;17.44;78.90;100466.42;5183140;57;21177;-82
2021/08/29 18:45:30;;;;;;;5.80;3.30;;;;;;;17.41;78.95;100468.11;5167364;57;21479;-83
2021/08/29 18:50:36;;;;;;;3.40;2.73;;;;;;;17.39;79.11;100480.80;5184542;57;21230;-83
2021/08/29 18:55:42;;;;;;;2.67;2.43;;;;;;;17.38;79.17;100475.95;5182989;57;21210;-83
2021/08/29 19:00:48;;;;;;;7.43;3.80;;;;;;;17.40;79.46;100475.80;5183635;56;22409;-83
2021/08/29 19:05:57;;;;;;;8.67;3.87;;;;;;;17.46;79.46;100476.45;5181475;57;21187;-81
2021/08/29 19:11:03;;;;;;;7.60;3.30;;;;;;;17.45;79.38;100468.09;5186444;57;21238;-82
2021/08/29 19:16:12;;;;;;;2.77;2.50;;;;;;;17.43;79.40;100470.94;5183866;57;21316;-82
2021/08/29 19:21:19;;;;;;;2.67;2.57;;;;;;;17.31;79.54;100461.55;5187093;57;21271;-83
2021/08/29 19:26:25;;;;;;;2.97;2.70;;;;;;;17.26;80.06;100455.89;5186121;57;21293;-82
2021/08/29 19:31:30;;;;;;;2.97;2.50;;;;;;;17.24;80.52;100457.88;5082117;56;1135783;-82
2021/08/29 19:36:36;;;;;;;10.48;6.58;;;;;;;17.30;80.80;100464.39;4064881;58;1139064;-82
2021/08/29 19:41:42;;;;;;;10.32;6.58;;;;;;;17.20;80.89;100461.38;4023240;58;1148624;-82
2021/08/29 19:46:48;;;;;;;5.85;4.80;;;;;;;17.27;81.53;100474.91;3938027;58;1150838;-82
2021/08/29 19:51:53;;;;;;;12.95;5.35;;;;;;;17.36;81.84;100471.27;3897154;59;1138973;-82
2021/08/29 19:56:59;;;;;;;5.60;3.77;;;;;;;17.43;81.82;100471.43;3881249;59;1146233;-83
2021/08/29 20:02:05;;;;;;;7.37;4.33;;;;;;;17.52;82.14;100474.47;3774710;59;1148546;-81
2021/08/29 20:07:11;;;;;;;10.63;4.60;;;;;;;17.43;81.61;100472.77;4434009;60;1139152;-79
2021/08/29 20:12:17;;;;;;;11.27;4.30;;;;;;;17.42;81.84;100476.44;4906290;59;21294;-78
2021/08/29 20:17:22;;;;;;;16.10;5.33;;;;;;;17.40;81.77;100471.78;4939195;59;21208;-78
2021/08/29 20:22:28;;;;;;;11.93;6.37;;;;;;;17.30;81.71;100467.06;4941966;59;21130;-80
2021/08/29 20:27:34;;;;;;;7.20;4.10;;;;;;;17.25;82.02;100472.08;4935409;59;21110;-78
2021/08/29 20:32:40;;;;;;;8.60;5.80;;;;;;;17.23;82.23;100467.73;4946011;59;21248;-79
2021/08/29 20:37:46;;;;;;;9.23;4.17;;;;;;;17.25;82.30;100462.23;4962543;59;21130;-79
2021/08/29 20:42:52;;;;;;;6.10;4.23;;;;;;;17.18;81.76;100456.69;4957243;59;21194;-80
2021/08/29 20:47:58;;;;;;;7.30;4.93;;;;;;;16.99;81.56;100443.59;4952948;59;21513;-79
2021/08/29 20:53:04;;;;;;;8.53;5.37;;;;;;;16.91;81.99;100438.73;4958900;59;21201;-79
2021/08/29 20:58:10;;;;;;;10.33;5.03;;;;;;;16.88;82.07;100438.05;4941843;59;21682;-79
2021/08/29 21:03:17;;;;;;;9.00;6.33;;;;;;;16.78;81.91;100445.88;4948811;59;21183;-80
2021/08/29 21:08:23;;;;;;;5.80;4.30;;;;;;;16.75;82.56;100442.18;4921851;60;21656;-80
2021/08/29 21:13:28;;;;;;;7.03;5.30;;;;;;;16.74;82.64;100452.52;4922838;60;21195;-79
2021/08/29 21:18:34;;;;;;;7.57;5.60;;;;;;;16.64;82.69;100456.66;4923033;60;21601;-79
2021/08/29 21:23:40;;;;;;;7.73;6.00;;;;;;;16.59;83.00;100465.61;4996874;59;21119;-80
2021/08/29 21:28:46;;;;;;;9.53;6.23;;;;;;;16.62;83.46;100467.97;4978793;59;21188;-79
2021/08/29 21:33:51;;;;;;;11.13;7.50;;;;;;;16.67;83.41;100475.51;4929471;59;21615;-78
2021/08/29 21:38:57;;;;;;;6.80;6.20;;;;;;;16.65;83.41;100469.52;4922879;60;21192;-79
2021/08/29 21:44:05;;;;;;;10.97;7.17;;;;;;;16.61;83.00;100468.95;4923048;60;21196;-80
2021/08/29 21:49:10;;;;;;;11.20;7.53;;;;;;;16.54;83.08;100465.23;4923216;59;21126;-79
2021/08/29 21:54:16;;;;;;;9.17;7.73;;;;;;;16.49;83.01;100460.39;4922949;60;21217;-79
2021/08/29 21:59:22;;;;;;;9.23;8.00;;;;;;;16.45;83.04;100464.86;4922881;60;21197;-80
2021/08/29 22:04:27;;;;;;;10.83;7.80;;;;;;;16.39;83.51;100456.98;4923053;60;21213;-80
2021/08/29 22:09:34;;;;;;;10.63;7.60;;;;;;;16.42;83.52;100452.66;4923228;60;21212;-79
2021/08/29 22:14:40;;;;;;;9.13;7.50;;;;;;;16.33;82.94;100454.95;4922932;60;21130;-79
2021/08/29 22:19:46;;;;;;;10.90;7.50;;;;;;;16.21;82.97;100444.18;4938773;59;21238;-80
2021/08/29 22:24:52;;;;;;;19.10;7.67;;;;;;;16.21;83.93;100452.68;4997197;59;21218;-78
2021/08/29 22:29:58;;;;;;;46.40;9.73;;;;;;;16.21;83.71;100453.52;4997212;59;21290;-79
2021/08/29 22:35:04;;;;;;;76.60;10.37;;;;;;;16.04;82.99;100447.23;4989681;59;21178;-79
2021/08/29 22:40:11;;;;;;;87.33;9.10;;;;;;;15.92;83.56;100452.98;4985304;59;21684;-80
2021/08/29 22:45:17;;;;;;;134.80;8.93;;;;;;;15.80;83.60;100451.89;4985246;59;21536;-80
2021/08/29 22:50:23;;;;;;;108.97;9.30;;;;;;;15.60;83.71;100450.87;4985224;59;21182;-79
2021/08/29 22:55:30;;;;;;;136.60;7.57;;;;;;;15.56;84.84;100450.86;4985257;59;21135;-79
2021/08/29 23:00:37;;;;;;;127.07;6.70;;;;;;;15.53;84.35;100451.13;4985285;59;22119;-80
2021/08/29 23:05:42;;;;;;;95.27;6.33;;;;;;;15.35;84.39;100454.62;4985205;59;21174;-80
2021/08/29 23:10:48;;;;;;;16.60;3.87;;;;;;;15.23;84.42;100461.16;4985219;59;21194;-80
2021/08/29 23:15:54;;;;;;;15.77;7.47;;;;;;;15.15;84.68;100465.05;4985066;59;21533;-80
2021/08/29 23:20:59;;;;;;;17.40;6.50;;;;;;;15.18;85.44;100470.58;4987035;59;21178;-80
2021/08/29 23:26:05;;;;;;;24.93;8.17;;;;;;;15.30;86.13;100466.21;4989248;59;21185;-79
2021/08/29 23:31:10;;;;;;;76.93;8.33;;;;;;;15.34;86.12;100460.93;4989301;59;21665;-80
2021/08/29 23:36:18;;;;;;;64.53;8.67;;;;;;;15.28;85.85;100452.69;4998578;59;21213;-79
2021/08/29 23:41:24;;;;;;;30.97;8.30;;;;;;;15.23;85.85;100449.66;5001872;59;21178;-79
2021/08/29 23:46:29;;;;;;;35.10;7.40;;;;;;;15.14;85.99;100450.05;5001977;59;21134;-79
2021/08/29 23:51:35;;;;;;;27.73;5.73;;;;;;;15.07;86.22;100449.83;5002076;59;21645;-80
2021/08/29 23:56:41;;;;;;;20.30;6.07;;;;;;;15.15;86.90;100443.73;5002049;59;22094;-80
